ZBAA/PEK METAR and TAF weather

Enter ICAO airport designator
Station Type Date Time Source
ZBAA METAR 2024/07/14 13:00 UTC NOAA

ZBAA 141300Z VRB01MPS 7000 NSC 24/22 Q1010 NOSIG


Station Type Date Time Source
ZBAA Decoded METAR 2024/07/14 13:00 UTC NOAA

Beijing, China (ZBAA) 39-56N 116-17E 55M
Jul 14, 2024 - 09:00 AM EDT / 2024.07.14 1300 UTC
Wind: Variable at 2 MPH (2 KT):0
Visibility: 4 mile(s):0
Temperature: 75 F (24 C)
Dew Point: 71 F (22 C)
Relative Humidity: 88%
Pressure (altimeter): 29.83 in. Hg (1010 hPa)
ob: ZBAA 141300Z VRB01MPS 7000 NSC 24/22 Q1010 NOSIG
cycle: 13

Station Type Date Time Source
ZBAA TAF 2024/07/14 12:10 UTC NOAA